Argus, California
Current Conditions -  °F | °C
As of 3:56 AM on Saturday 25 Oct 2014 (Local Time) from KNID Reporting Station
Clear Clear  
Wind Chill: 17°   Ceiling: Unl
Heat Index: 17°   Visibility: 10mi
Dew Point:   Wind: 0mph
Humidity: 37%   Direction: NA
Pressure: 30.01"   Gusts: NA
Location:  35.6496°N, 117.375°W
Report Text: KNID 251056Z AUTO 00000KT 10SM CLR 17/02 A3001 RMK AO2 SLP145 T01720022 $
Loading
Personal Weather Stations






























Interactive Weather Map
Tropical Storm Tracking
New forecast layout! Learn more

10-Day Weather Forecast

Advertisements
Track Severe Weather on mobile